Terminal Aerodrome Forecast
Issued by NWS

Home | Current Version | Previous Version | Text Only | Print | Product List | Glossary On
Versions: 1 2 3 4 5 6 7 8 9 10 11
861
FTUS42 TJSJ 082347
TAFJMZ
TAF
TJMZ 082347Z 0900/0924 VRB05KT P6SM FEW025
     FM091500 27009KT P6SM SCT030 SCT040
     FM092300 06005KT P6SM FEW035
      AMD NOT SKED TIL 091500=

USA.gov is the U.S. government's official web portal to all federal, state and local government web resources and services.